sensor_id;sensor_type;location;lat;lon;timestamp;pressure;altitude;pressure_sealevel;temperature;humidity
38191;BME280;25191;47.510;19.124;2023-02-17T00:06:58;101215.28;;;21.23;48.55
38191;BME280;25191;47.510;19.124;2023-02-17T00:16:58;101208.25;;;21.24;48.80
38191;BME280;25191;47.510;19.124;2023-02-17T00:26:59;101207.50;;;21.22;48.40
38191;BME280;25191;47.510;19.124;2023-02-17T00:36:59;101198.84;;;21.20;48.27
38191;BME280;25191;47.510;19.124;2023-02-17T00:47:00;101198.94;;;21.18;48.30
38191;BME280;25191;47.510;19.124;2023-02-17T00:57:00;101205.25;;;21.16;48.76
38191;BME280;25191;47.510;19.124;2023-02-17T01:07:02;101193.97;;;21.14;48.91
38191;BME280;25191;47.510;19.124;2023-02-17T01:17:02;101202.81;;;21.13;48.50
38191;BME280;25191;47.510;19.124;2023-02-17T01:27:03;101194.91;;;21.13;48.52
38191;BME280;25191;47.510;19.124;2023-02-17T01:37:03;101186.34;;;21.09;48.63
38191;BME280;25191;47.510;19.124;2023-02-17T01:47:04;101174.22;;;21.06;48.78
38191;BME280;25191;47.510;19.124;2023-02-17T01:57:04;101167.59;;;21.01;48.68
38191;BME280;25191;47.510;19.124;2023-02-17T02:07:13;101160.63;;;21.00;48.86
38191;BME280;25191;47.510;19.124;2023-02-17T02:37:29;101135.34;;;20.97;48.13
38191;BME280;25191;47.510;19.124;2023-02-17T02:47:49;101125.84;;;20.94;48.36
38191;BME280;25191;47.510;19.124;2023-02-17T03:18:13;101142.78;;;20.90;48.64
38191;BME280;25191;47.510;19.124;2023-02-17T03:28:14;101155.41;;;20.85;48.91
38191;BME280;25191;47.510;19.124;2023-02-17T03:38:14;101149.28;;;20.85;48.78
38191;BME280;25191;47.510;19.124;2023-02-17T03:48:15;101161.72;;;20.83;48.57
38191;BME280;25191;47.510;19.124;2023-02-17T03:58:15;101157.50;;;20.80;48.68
38191;BME280;25191;47.510;19.124;2023-02-17T04:08:16;101145.28;;;20.79;48.69
38191;BME280;25191;47.510;19.124;2023-02-17T04:18:17;101168.09;;;20.78;48.75
38191;BME280;25191;47.510;19.124;2023-02-17T04:28:19;101149.78;;;20.77;48.36
38191;BME280;25191;47.510;19.124;2023-02-17T04:38:20;101138.31;;;20.78;48.20
38191;BME280;25191;47.510;19.124;2023-02-17T04:48:21;101127.03;;;20.76;48.79
38191;BME280;25191;47.510;19.124;2023-02-17T04:58:22;101132.09;;;20.79;48.00
38191;BME280;25191;47.510;19.124;2023-02-17T05:08:23;101142.81;;;20.76;47.42
38191;BME280;25191;47.510;19.124;2023-02-17T05:18:24;101142.53;;;20.81;48.38
38191;BME280;25191;47.510;19.124;2023-02-17T05:28:24;101135.72;;;20.91;48.79
38191;BME280;25191;47.510;19.124;2023-02-17T05:38:24;101147.38;;;21.01;50.18
38191;BME280;25191;47.510;19.124;2023-02-17T05:48:25;101147.50;;;21.13;50.00
38191;BME280;25191;47.510;19.124;2023-02-17T05:58:25;101151.25;;;21.23;49.67
38191;BME280;25191;47.510;19.124;2023-02-17T06:08:26;101151.03;;;21.26;48.44
38191;BME280;25191;47.510;19.124;2023-02-17T06:18:27;101146.28;;;21.31;49.07
38191;BME280;25191;47.510;19.124;2023-02-17T06:28:27;101156.34;;;21.39;50.12
38191;BME280;25191;47.510;19.124;2023-02-17T06:38:28;101165.19;;;21.38;46.94
38191;BME280;25191;47.510;19.124;2023-02-17T06:48:28;101176.16;;;21.44;47.22
38191;BME280;25191;47.510;19.124;2023-02-17T06:58:32;101164.47;;;21.49;48.57
38191;BME280;25191;47.510;19.124;2023-02-17T07:08:34;101168.59;;;21.53;47.94
38191;BME280;25191;47.510;19.124;2023-02-17T07:18:35;101171.91;;;21.56;48.00
38191;BME280;25191;47.510;19.124;2023-02-17T07:28:38;101172.53;;;21.60;48.21
38191;BME280;25191;47.510;19.124;2023-02-17T07:38:39;101151.25;;;21.63;47.94
38191;BME280;25191;47.510;19.124;2023-02-17T07:48:39;101161.69;;;21.65;48.05
38191;BME280;25191;47.510;19.124;2023-02-17T07:58:41;101144.81;;;21.67;48.25
38191;BME280;25191;47.510;19.124;2023-02-17T08:08:42;101137.56;;;21.71;47.64
38191;BME280;25191;47.510;19.124;2023-02-17T08:19:02;101153.19;;;21.74;48.12
38191;BME280;25191;47.510;19.124;2023-02-17T08:29:03;101154.75;;;21.77;47.42
38191;BME280;25191;47.510;19.124;2023-02-17T08:39:05;101171.22;;;21.80;47.62
38191;BME280;25191;47.510;19.124;2023-02-17T08:49:06;101157.81;;;21.83;47.82
38191;BME280;25191;47.510;19.124;2023-02-17T08:59:08;101148.00;;;21.85;47.38
38191;BME280;25191;47.510;19.124;2023-02-17T09:09:10;101160.03;;;21.89;47.41
38191;BME280;25191;47.510;19.124;2023-02-17T09:19:11;101160.78;;;21.91;47.72
38191;BME280;25191;47.510;19.124;2023-02-17T09:29:12;101141.16;;;21.96;47.31
38191;BME280;25191;47.510;19.124;2023-02-17T09:39:12;101142.53;;;22.01;47.07
38191;BME280;25191;47.510;19.124;2023-02-17T09:49:21;101145.03;;;22.03;47.36
38191;BME280;25191;47.510;19.124;2023-02-17T09:59:44;101140.53;;;22.05;46.58
38191;BME280;25191;47.510;19.124;2023-02-17T10:10:15;101121.31;;;22.03;46.27
38191;BME280;25191;47.510;19.124;2023-02-17T10:30:32;101088.09;;;22.00;46.99
38191;BME280;25191;47.510;19.124;2023-02-17T10:40:36;101059.94;;;22.01;47.28
38191;BME280;25191;47.510;19.124;2023-02-17T10:50:41;101057.31;;;22.01;47.11
38191;BME280;25191;47.510;19.124;2023-02-17T11:00:42;101059.94;;;22.01;46.93
38191;BME280;25191;47.510;19.124;2023-02-17T11:10:42;101047.78;;;21.98;46.88
38191;BME280;25191;47.510;19.124;2023-02-17T11:20:43;101038.00;;;22.00;46.56
38191;BME280;25191;47.510;19.124;2023-02-17T11:30:49;101029.97;;;22.02;48.53
38191;BME280;25191;47.510;19.124;2023-02-17T11:40:53;101005.72;;;21.97;46.87
38191;BME280;25191;47.510;19.124;2023-02-17T12:01:53;100988.75;;;22.01;47.38
38191;BME280;25191;47.510;19.124;2023-02-17T12:12:12;100978.38;;;22.11;46.88
38191;BME280;25191;47.510;19.124;2023-02-17T12:33:11;100941.03;;;22.04;46.40
38191;BME280;25191;47.510;19.124;2023-02-17T12:42:52;100954.34;;;22.02;46.51
38191;BME280;25191;47.510;19.124;2023-02-17T12:52:59;100948.22;;;22.02;46.27
38191;BME280;25191;47.510;19.124;2023-02-17T13:03:02;100949.50;;;21.96;46.16
38191;BME280;25191;47.510;19.124;2023-02-17T13:13:24;100947.72;;;21.97;46.38
38191;BME280;25191;47.510;19.124;2023-02-17T13:23:32;100948.66;;;21.96;46.18
38191;BME280;25191;47.510;19.124;2023-02-17T13:33:44;100949.59;;;21.95;46.15
38191;BME280;25191;47.510;19.124;2023-02-17T13:43:45;100936.53;;;21.93;46.25
38191;BME280;25191;47.510;19.124;2023-02-17T13:53:49;100926.09;;;21.91;47.02
38191;BME280;25191;47.510;19.124;2023-02-17T14:03:54;100907.53;;;21.93;46.63
38191;BME280;25191;47.510;19.124;2023-02-17T14:13:56;100897.84;;;21.94;46.65
38191;BME280;25191;47.510;19.124;2023-02-17T14:23:58;100891.00;;;21.91;46.66
38191;BME280;25191;47.510;19.124;2023-02-17T14:34:00;100885.81;;;21.89;46.47
38191;BME280;25191;47.510;19.124;2023-02-17T14:44:01;100885.72;;;21.91;46.89
38191;BME280;25191;47.510;19.124;2023-02-17T14:54:13;100887.50;;;21.90;46.70
38191;BME280;25191;47.510;19.124;2023-02-17T15:04:14;100877.09;;;21.89;46.75
38191;BME280;25191;47.510;19.124;2023-02-17T15:14:17;100861.38;;;21.87;47.00
38191;BME280;25191;47.510;19.124;2023-02-17T15:24:23;100843.03;;;21.86;46.84
38191;BME280;25191;47.510;19.124;2023-02-17T15:34:28;100831.84;;;21.82;46.95
38191;BME280;25191;47.510;19.124;2023-02-17T15:44:37;100837.13;;;21.82;47.00
38191;BME280;25191;47.510;19.124;2023-02-17T15:54:39;100847.91;;;21.79;46.82
38191;BME280;25191;47.510;19.124;2023-02-17T16:04:41;100850.56;;;21.79;46.71
38191;BME280;25191;47.510;19.124;2023-02-17T16:14:44;100832.09;;;21.79;46.70
38191;BME280;25191;47.510;19.124;2023-02-17T16:24:45;100827.03;;;21.76;47.11
38191;BME280;25191;47.510;19.124;2023-02-17T16:44:47;100811.66;;;21.70;46.59
38191;BME280;25191;47.510;19.124;2023-02-17T16:54:49;100820.66;;;21.67;46.97
38191;BME280;25191;47.510;19.124;2023-02-17T17:04:50;100799.06;;;21.62;47.06
38191;BME280;25191;47.510;19.124;2023-02-17T17:14:50;100792.31;;;21.58;46.50
38191;BME280;25191;47.510;19.124;2023-02-17T17:24:51;100776.09;;;21.64;47.18
38191;BME280;25191;47.510;19.124;2023-02-17T17:34:52;100767.94;;;21.67;48.19
38191;BME280;25191;47.510;19.124;2023-02-17T17:44:54;100770.44;;;21.69;48.66
38191;BME280;25191;47.510;19.124;2023-02-17T17:54:55;100765.19;;;21.69;49.61
38191;BME280;25191;47.510;19.124;2023-02-17T18:04:56;100766.03;;;21.69;49.59
38191;BME280;25191;47.510;19.124;2023-02-17T18:14:58;100753.56;;;21.71;49.40
38191;BME280;25191;47.510;19.124;2023-02-17T18:25:02;100754.53;;;21.70;50.06
38191;BME280;25191;47.510;19.124;2023-02-17T18:35:06;100743.88;;;21.72;49.69
38191;BME280;25191;47.510;19.124;2023-02-17T18:45:07;100734.91;;;21.74;50.01
38191;BME280;25191;47.510;19.124;2023-02-17T18:55:10;100719.44;;;21.70;50.27
38191;BME280;25191;47.510;19.124;2023-02-17T19:05:11;100712.59;;;21.67;50.00
38191;BME280;25191;47.510;19.124;2023-02-17T19:15:13;100709.22;;;21.65;50.32
38191;BME280;25191;47.510;19.124;2023-02-17T19:25:15;100699.53;;;21.66;50.23
38191;BME280;25191;47.510;19.124;2023-02-17T19:35:16;100702.88;;;21.68;50.59
38191;BME280;25191;47.510;19.124;2023-02-17T19:45:17;100705.88;;;21.63;50.46
38191;BME280;25191;47.510;19.124;2023-02-17T19:55:19;100679.75;;;21.60;50.38
38191;BME280;25191;47.510;19.124;2023-02-17T20:05:20;100670.88;;;21.61;50.54
38191;BME280;25191;47.510;19.124;2023-02-17T20:15:23;100633.88;;;21.63;50.40
38191;BME280;25191;47.510;19.124;2023-02-17T20:25:24;100602.50;;;21.59;50.23
38191;BME280;25191;47.510;19.124;2023-02-17T20:35:24;100590.75;;;21.64;49.88
38191;BME280;25191;47.510;19.124;2023-02-17T20:45:27;100577.81;;;21.61;49.83
38191;BME280;25191;47.510;19.124;2023-02-17T20:55:28;100566.03;;;21.53;49.77
38191;BME280;25191;47.510;19.124;2023-02-17T21:05:30;100571.78;;;21.47;48.32
38191;BME280;25191;47.510;19.124;2023-02-17T21:15:32;100589.50;;;21.45;48.32
38191;BME280;25191;47.510;19.124;2023-02-17T21:25:33;100590.09;;;21.49;48.73
38191;BME280;25191;47.510;19.124;2023-02-17T21:35:35;100609.50;;;21.48;48.58
38191;BME280;25191;47.510;19.124;2023-02-17T21:45:37;100620.03;;;21.48;49.23
38191;BME280;25191;47.510;19.124;2023-02-17T21:55:38;100622.06;;;21.44;49.47
38191;BME280;25191;47.510;19.124;2023-02-17T22:05:38;100622.19;;;21.42;49.54
38191;BME280;25191;47.510;19.124;2023-02-17T22:15:39;100622.50;;;21.38;49.71
38191;BME280;25191;47.510;19.124;2023-02-17T22:25:41;100603.25;;;21.37;49.82
38191;BME280;25191;47.510;19.124;2023-02-17T22:35:41;100605.50;;;21.42;50.37
38191;BME280;25191;47.510;19.124;2023-02-17T22:45:42;100629.13;;;21.43;51.22
38191;BME280;25191;47.510;19.124;2023-02-17T22:55:49;100611.16;;;21.37;51.22
38191;BME280;25191;47.510;19.124;2023-02-17T23:05:50;100614.72;;;21.36;51.21
38191;BME280;25191;47.510;19.124;2023-02-17T23:15:50;100587.44;;;21.37;50.76
38191;BME280;25191;47.510;19.124;2023-02-17T23:25:54;100578.94;;;21.34;50.88
38191;BME280;25191;47.510;19.124;2023-02-17T23:35:55;100577.94;;;21.35;50.41
38191;BME280;25191;47.510;19.124;2023-02-17T23:45:56;100588.59;;;21.33;50.27
38191;BME280;25191;47.510;19.124;2023-02-17T23:56:05;100571.13;;;21.32;50.46
